Terminal Aerodrome Forecast
Issued by NWS

Home | Current Version | Previous Version | Text Only | Print | Product List | Glossary On
Versions: 1 2 3 4 5 6 7 8 9 10 11 12 13 14 15 16
000
FTUS42 KGSP 251734
TAFGMU
TAF
KGMU 251734Z 2518/2618 21008KT P6SM BKN035
     FM260500 16007KT P6SM BKN045 PROB30 2606/2609 4SM -SHRA OVC015
     FM261000 15006KT 6SM BR BKN010 PROB30 2610/2612 2SM -SHRA BR
      OVC004
     FM261200 16006KT 4SM -SHRA OVC008
     FM261600 17009KT 6SM -SHRA OVC015=

USA.gov is the U.S. government's official web portal to all federal, state and local government web resources and services.